Saint Ignace, Michigan
Current Conditions -  °F | °C
As of 1:40 PM on Friday 31 Oct 2014 (Local Time) from KMCD Reporting Station
Overcast Overcast  
Wind Chill: 23°   Ceiling: 2900
Heat Index: 34°   Visibility: 10mi
Dew Point: 24°   Wind: 17mph
Humidity: 69%   Direction: 10°N
Pressure: 30.22"   Gusts: 26mph
Location:  45.87°N, 84.73°W
Report Text: KMCD 311740Z AUTO 01015G23KT 10SM SCT023 BKN029 OVC037 01/M04 A3022 RMK AO2 T00091042
Loading
Personal Weather Stations






























Interactive Weather Map
Tropical Storm Tracking
New forecast layout! Learn more

10-Day Weather Forecast

Advertisements
Track Severe Weather on mobile